Time;durP1;ratioP1;P1;durP2;ratioP2;P2;SDS_P1;SDS_P2;PMS_P1;PMS_P2;Temp;Humidity;BMP_temperature;BMP_pressure;BME280_temperature;BME280_humidity;BME280_pressure;Samples;Min_cycle;Max_cycle;Signal;HPM_P1;HPM_P2
2023/10/23 00:01:36;;;;;;;3.20;1.47;;;;;;;11.87;92.06;100222.13;5105994;28;20201;-82
2023/10/23 00:04:03;;;;;;;4.40;1.40;;;;;;;11.81;92.49;100217.03;5106599;28;20196;-82
2023/10/23 00:06:29;;;;;;;1.40;1.30;;;;;;;11.83;92.14;100214.38;5105625;28;20207;-83
2023/10/23 00:08:57;;;;;;;2.47;1.60;;;;;;;11.84;92.02;100221.34;5124913;28;20223;-83
2023/10/23 00:11:24;;;;;;;3.33;1.37;;;;;;;11.79;92.00;100220.59;5126748;28;20214;-83
2023/10/23 00:13:50;;;;;;;4.20;1.40;;;;;;;11.86;91.92;100237.84;5125768;28;20197;-83
2023/10/23 00:16:17;;;;;;;1.30;1.20;;;;;;;11.79;92.09;100239.75;5125437;28;20228;-83
2023/10/23 00:18:43;;;;;;;1.80;1.67;;;;;;;11.83;92.22;100241.41;5125789;28;20227;-82
2023/10/23 00:21:10;;;;;;;1.60;1.47;;;;;;;11.87;92.45;100226.47;5126349;28;20214;-82
2023/10/23 00:23:36;;;;;;;1.70;1.60;;;;;;;11.84;92.94;100222.19;5126152;28;20207;-83
2023/10/23 00:26:05;;;;;;;2.27;1.70;;;;;;;11.86;93.20;100215.16;5126174;28;20229;-83
2023/10/23 00:28:32;;;;;;;1.40;1.30;;;;;;;11.92;93.67;100214.16;5125826;28;20234;-82
2023/10/23 00:30:59;;;;;;;1.80;1.70;;;;;;;11.90;93.76;100210.72;5125742;28;20667;-83
2023/10/23 00:33:26;;;;;;;3.40;1.57;;;;;;;11.89;94.72;100188.06;5135771;28;20200;-83
2023/10/23 00:35:52;;;;;;;2.13;1.70;;;;;;;11.90;94.47;100182.81;5137547;28;20223;-82
2023/10/23 00:38:19;;;;;;;2.30;1.70;;;;;;;11.92;94.98;100174.94;5137352;28;20208;-82
2023/10/23 00:40:46;;;;;;;2.83;1.50;;;;;;;11.96;95.56;100165.25;5131188;28;20191;-82
2023/10/23 00:43:18;;;;;;;1.47;1.37;;;;;;;11.98;94.90;100166.03;5126214;28;20197;-81
2023/10/23 00:45:52;;;;;;;1.87;1.50;;;;;;;12.01;95.13;100169.44;5135421;28;20184;-82
2023/10/23 00:48:21;;;;;;;4.20;1.87;;;;;;;12.02;95.28;100172.91;5129787;28;20234;-83
2023/10/23 00:50:49;;;;;;;2.60;1.60;;;;;;;11.99;95.85;100165.13;5128732;28;20215;-82
2023/10/23 00:53:16;;;;;;;2.73;1.90;;;;;;;12.02;96.31;100159.81;5128886;28;20674;-82
2023/10/23 00:55:42;;;;;;;3.03;2.20;;;;;;;12.07;96.07;100155.28;5110916;28;20235;-83
2023/10/23 00:58:09;;;;;;;4.10;1.67;;;;;;;12.08;96.65;100152.63;5112552;28;20236;-82
2023/10/23 01:00:37;;;;;;;1.70;1.60;;;;;;;12.11;96.59;100157.78;5128323;27;20499;-83
2023/10/23 01:03:04;;;;;;;2.47;1.70;;;;;;;12.14;97.22;100150.75;5128299;28;20229;-83
2023/10/23 01:05:31;;;;;;;2.07;1.80;;;;;;;12.17;97.36;100148.91;5112049;28;20200;-83
2023/10/23 01:07:57;;;;;;;3.23;1.90;;;;;;;12.18;97.71;100137.53;5118743;28;20348;-82
2023/10/23 01:10:24;;;;;;;3.53;1.90;;;;;;;12.21;97.36;100142.69;5128198;28;20208;-82
2023/10/23 01:12:53;;;;;;;6.43;2.00;;;;;;;12.23;97.64;100133.00;5128211;28;20211;-82
2023/10/23 01:15:20;;;;;;;1.80;1.67;;;;;;;12.23;97.46;100135.63;5128119;28;20231;-82
2023/10/23 01:17:48;;;;;;;3.23;1.90;;;;;;;12.26;98.15;100143.38;5118402;28;20228;-83
2023/10/23 01:20:15;;;;;;;3.73;1.90;;;;;;;12.29;98.36;100131.97;5106991;28;20200;-82
2023/10/23 01:22:41;;;;;;;1.90;1.60;;;;;;;12.30;98.36;100129.28;5107056;28;20210;-83
2023/10/23 01:25:13;;;;;;;7.60;1.87;;;;;;;12.30;98.52;100125.81;5107701;28;20213;-83
2023/10/23 01:27:39;;;;;;;3.50;1.87;;;;;;;12.31;98.79;100127.56;5107434;28;20234;-82
2023/10/23 01:30:08;;;;;;;5.23;1.63;;;;;;;12.33;98.99;100130.97;5119565;28;20209;-83
2023/10/23 01:32:34;;;;;;;2.17;1.73;;;;;;;12.34;98.95;100130.06;5111067;28;20217;-83
2023/10/23 01:35:01;;;;;;;3.10;2.23;;;;;;;12.39;99.29;100128.16;5107281;28;20205;-83
2023/10/23 01:37:27;;;;;;;2.27;1.90;;;;;;;12.39;99.77;100122.94;5114969;28;20235;-82
2023/10/23 01:39:54;;;;;;;1.93;1.83;;;;;;;12.43;99.52;100123.69;5126329;28;20212;-83
2023/10/23 01:42:21;;;;;;;3.57;2.17;;;;;;;12.44;99.88;100125.38;5127858;28;20209;-82
2023/10/23 01:44:48;;;;;;;2.67;1.83;;;;;;;12.45;100.00;100119.25;5127566;28;20209;-82
2023/10/23 01:47:14;;;;;;;2.37;1.67;;;;;;;12.47;99.92;100122.69;5127512;27;20196;-83
2023/10/23 01:49:41;;;;;;;2.73;2.00;;;;;;;12.45;100.00;100119.25;5126902;27;20206;-83
2023/10/23 01:52:07;;;;;;;2.53;2.13;;;;;;;12.55;100.00;100107.59;5107161;28;20210;-83
2023/10/23 01:54:33;;;;;;;2.47;1.80;;;;;;;12.59;100.00;100108.34;5107777;28;20203;-83
2023/10/23 01:57:00;;;;;;;1.60;1.50;;;;;;;12.61;100.00;100117.00;5126242;28;20234;-82
2023/10/23 01:59:28;;;;;;;1.83;1.70;;;;;;;12.62;100.00;100122.16;5127158;28;20199;-83
2023/10/23 02:01:54;;;;;;;5.10;2.50;;;;;;;12.65;100.00;100123.84;5126876;28;20213;-83
2023/10/23 02:04:20;;;;;;;3.77;1.97;;;;;;;12.62;100.00;100119.56;5127403;28;20204;-83
2023/10/23 02:06:47;;;;;;;1.97;1.87;;;;;;;12.64;100.00;100115.13;5126866;28;20275;-83
2023/10/23 02:09:13;;;;;;;2.83;2.10;;;;;;;12.69;100.00;100115.00;5127505;28;20225;-83
2023/10/23 02:11:40;;;;;;;1.90;1.80;;;;;;;12.65;100.00;100121.25;5127367;28;20212;-83
2023/10/23 02:14:06;;;;;;;2.20;1.70;;;;;;;12.70;100.00;100120.19;5126684;28;20208;-83
2023/10/23 02:16:34;;;;;;;1.77;1.67;;;;;;;12.70;100.00;100130.66;5126704;28;20224;-83
2023/10/23 02:19:01;;;;;;;2.30;1.80;;;;;;;12.70;100.00;100132.41;5126306;27;20229;-83
2023/10/23 02:21:27;;;;;;;2.27;1.40;;;;;;;12.71;100.00;100134.97;5127080;28;20207;-83
2023/10/23 02:23:54;;;;;;;2.07;1.70;;;;;;;12.71;100.00;100131.50;5126973;27;20202;-82
2023/10/23 02:26:21;;;;;;;2.70;1.80;;;;;;;12.74;100.00;100139.25;5127040;28;20211;-83
2023/10/23 02:28:47;;;;;;;2.33;1.80;;;;;;;12.74;100.00;100141.03;5125105;28;20243;-83
2023/10/23 02:31:15;;;;;;;2.80;1.80;;;;;;;12.65;100.00;100143.03;5126842;28;20204;-83
2023/10/23 02:33:42;;;;;;;2.73;1.67;;;;;;;12.68;100.00;100126.34;5126695;28;20201;-83
2023/10/23 02:36:09;;;;;;;1.70;1.60;;;;;;;12.64;100.00;100136.06;5114437;28;20219;-82
2023/10/23 02:38:35;;;;;;;2.77;1.80;;;;;;;12.63;100.00;100136.16;5105939;28;20222;-82
2023/10/23 02:41:02;;;;;;;4.10;1.80;;;;;;;12.67;100.00;100145.59;5106590;28;20216;-83
2023/10/23 02:43:28;;;;;;;3.90;2.20;;;;;;;12.66;100.00;100149.13;5105587;28;20213;-83
2023/10/23 02:45:55;;;;;;;3.13;2.07;;;;;;;12.64;100.00;100149.16;5106324;28;20194;-83
2023/10/23 02:48:21;;;;;;;2.10;1.50;;;;;;;12.65;100.00;100147.44;5105439;28;20248;-83
2023/10/23 02:50:54;;;;;;;2.17;1.90;;;;;;;12.73;100.00;100148.03;5106231;28;20698;-82
2023/10/23 02:53:21;;;;;;;2.27;2.07;;;;;;;12.71;100.00;100161.16;5106848;28;20205;-83
2023/10/23 02:55:47;;;;;;;3.83;1.97;;;;;;;12.71;100.00;100169.03;5105687;28;20226;-83
2023/10/23 02:58:14;;;;;;;2.27;2.17;;;;;;;12.71;100.00;100171.63;5117719;28;20232;-81
2023/10/23 03:00:42;;;;;;;3.87;1.90;;;;;;;12.71;100.00;100170.78;5125883;28;20205;-82
2023/10/23 03:03:08;;;;;;;1.83;1.73;;;;;;;12.70;100.00;100175.19;5126190;28;20238;-82
2023/10/23 03:05:35;;;;;;;1.77;1.67;;;;;;;12.66;100.00;100164.84;5123658;28;20248;-83
2023/10/23 03:08:03;;;;;;;6.40;2.20;;;;;;;12.64;100.00;100164.88;5123401;28;20224;-83
2023/10/23 03:10:30;;;;;;;3.33;1.80;;;;;;;12.65;100.00;100156.13;5105153;28;20204;-82
2023/10/23 03:12:56;;;;;;;4.13;2.13;;;;;;;12.69;100.00;100162.97;5124050;28;20203;-83
2023/10/23 03:15:23;;;;;;;2.80;2.10;;;;;;;12.69;100.00;100170.84;5126991;28;20209;-83
2023/10/23 03:17:50;;;;;;;2.00;1.90;;;;;;;12.68;100.00;100173.50;5126349;28;20230;-83
2023/10/23 03:20:16;;;;;;;2.93;2.20;;;;;;;12.74;100.00;100170.69;5126351;28;20199;-83
2023/10/23 03:22:43;;;;;;;6.03;3.17;;;;;;;12.67;100.00;100169.19;5127119;28;20203;-83
2023/10/23 03:25:11;;;;;;;3.40;1.53;;;;;;;12.77;100.00;100167.97;5126251;28;20219;-83
2023/10/23 03:27:38;;;;;;;3.47;1.67;;;;;;;12.74;100.00;100173.28;5126543;28;20217;-83
2023/10/23 03:30:06;;;;;;;4.60;1.63;;;;;;;12.78;100.00;100174.06;5126000;28;20211;-83
2023/10/23 03:32:32;;;;;;;3.07;2.73;;;;;;;12.65;100.00;100176.22;5126269;28;20223;-83
2023/10/23 03:35:00;;;;;;;2.83;1.63;;;;;;;12.74;100.00;100168.06;5126108;28;20204;-83
2023/10/23 03:37:26;;;;;;;1.50;1.40;;;;;;;12.83;100.00;100172.16;5126254;28;20235;-83
2023/10/23 03:39:53;;;;;;;2.83;1.37;;;;;;;12.85;100.00;100181.66;5125599;28;20205;-83
2023/10/23 03:42:21;;;;;;;2.73;1.80;;;;;;;12.84;100.00;100193.06;5126836;28;20196;-84
2023/10/23 03:44:47;;;;;;;2.00;1.73;;;;;;;12.75;100.00;100195.97;5125290;28;20212;-83
2023/10/23 03:47:13;;;;;;;3.37;1.50;;;;;;;12.77;100.00;100191.53;5126345;28;20194;-83
2023/10/23 03:49:40;;;;;;;1.80;1.70;;;;;;;12.77;100.00;100196.78;5125859;28;20208;-83
2023/10/23 03:52:06;;;;;;;2.33;1.87;;;;;;;12.77;100.00;100194.16;5126393;28;20354;-83
2023/10/23 03:54:33;;;;;;;3.80;1.87;;;;;;;12.82;100.00;100201.88;5126085;28;20197;-83
2023/10/23 03:56:59;;;;;;;2.43;2.23;;;;;;;12.79;100.00;100201.97;5126524;28;20732;-83
2023/10/23 03:59:27;;;;;;;2.13;1.90;;;;;;;12.82;100.00;100201.88;5120225;28;20216;-83
2023/10/23 04:01:53;;;;;;;1.77;1.67;;;;;;;12.80;100.00;100209.75;5105893;28;20211;-83
2023/10/23 04:04:20;;;;;;;2.40;2.20;;;;;;;12.85;99.88;100214.88;5106242;28;20201;-83
2023/10/23 04:06:46;;;;;;;2.77;2.57;;;;;;;12.85;99.70;100215.72;5105873;28;20207;-83
2023/10/23 04:09:13;;;;;;;4.07;2.40;;;;;;;12.87;99.30;100220.94;5107066;28;20218;-83
2023/10/23 04:11:39;;;;;;;2.40;2.20;;;;;;;12.86;99.42;100225.31;5126626;28;20232;-83
2023/10/23 04:14:06;;;;;;;2.13;1.90;;;;;;;12.84;99.13;100236.72;5126225;28;20207;-83
2023/10/23 04:16:33;;;;;;;2.87;1.93;;;;;;;12.80;99.74;100228.09;5130419;28;20410;-83
2023/10/23 04:19:00;;;;;;;3.03;1.80;;;;;;;12.78;99.54;100223.81;5130556;28;20228;-83
2023/10/23 04:21:26;;;;;;;1.77;1.60;;;;;;;12.74;99.24;100230.91;5131133;28;20223;-83
2023/10/23 04:23:53;;;;;;;1.80;1.63;;;;;;;12.70;98.86;100232.78;5135752;28;20212;-83
2023/10/23 04:26:19;;;;;;;2.40;1.97;;;;;;;12.70;99.36;100232.78;5136313;28;20203;-83
2023/10/23 04:28:45;;;;;;;5.63;1.80;;;;;;;12.68;98.85;100238.97;5128521;28;20217;-83
2023/10/23 04:31:12;;;;;;;3.03;1.73;;;;;;;12.69;98.63;100243.31;5115946;28;20197;-82
2023/10/23 04:33:40;;;;;;;2.83;1.70;;;;;;;12.66;98.33;100240.78;5116511;28;20188;-83
2023/10/23 04:36:07;;;;;;;1.90;1.80;;;;;;;12.63;98.21;100246.97;5114510;28;20205;-82
2023/10/23 04:38:33;;;;;;;2.60;1.50;;;;;;;12.61;97.67;100253.16;5116147;28;20233;-82
2023/10/23 04:40:59;;;;;;;1.67;1.57;;;;;;;12.57;97.07;100260.25;5117907;28;20201;-83
2023/10/23 04:43:26;;;;;;;1.63;1.53;;;;;;;12.52;97.20;100263.00;5127984;27;20205;-83
2023/10/23 04:45:55;;;;;;;2.00;1.90;;;;;;;12.50;97.45;100266.56;5128930;28;20200;-83
2023/10/23 04:48:22;;;;;;;2.60;1.90;;;;;;;12.48;96.92;100274.47;5120224;28;20259;-82
2023/10/23 04:50:49;;;;;;;2.37;2.17;;;;;;;12.42;97.57;100269.41;5128793;28;20201;-82
2023/10/23 04:53:16;;;;;;;2.30;2.20;;;;;;;12.44;97.87;100278.06;5128258;28;20200;-83
2023/10/23 04:55:42;;;;;;;2.43;2.23;;;;;;;12.42;97.76;100273.78;5128048;28;20205;-83
2023/10/23 04:58:09;;;;;;;2.23;2.13;;;;;;;12.41;98.42;100272.94;5126965;28;20237;-82
2023/10/23 05:00:36;;;;;;;3.00;2.80;;;;;;;12.42;98.13;100265.94;5127378;28;20207;-83
2023/10/23 05:03:04;;;;;;;3.10;2.80;;;;;;;12.42;98.12;100263.31;5128861;27;20201;-83
2023/10/23 05:05:30;;;;;;;2.90;2.67;;;;;;;12.41;98.19;100264.25;5128209;27;20297;-83
2023/10/23 05:07:59;;;;;;;3.67;2.97;;;;;;;12.38;98.69;100251.22;5128756;28;20229;-83
2023/10/23 05:10:25;;;;;;;3.63;2.90;;;;;;;12.39;99.49;100250.31;5116605;28;20217;-83
2023/10/23 05:12:53;;;;;;;2.70;2.60;;;;;;;12.41;99.46;100238.91;5124887;28;20197;-83
2023/10/23 05:15:19;;;;;;;3.37;2.60;;;;;;;12.37;100.00;100229.44;5127550;28;20224;-83
2023/10/23 05:17:46;;;;;;;4.40;2.63;;;;;;;12.38;99.74;100225.91;5127419;28;20220;-83
2023/10/23 05:20:12;;;;;;;2.57;2.37;;;;;;;12.40;99.56;100231.09;5115958;28;20544;-83
2023/10/23 05:22:39;;;;;;;3.27;2.70;;;;;;;12.39;99.31;100230.25;5121860;28;20267;-83
2023/10/23 05:25:08;;;;;;;2.50;2.30;;;;;;;12.40;99.15;100233.72;5128154;28;20201;-83
2023/10/23 05:27:35;;;;;;;4.13;2.50;;;;;;;12.41;99.27;100243.31;5126672;28;20216;-83
2023/10/23 05:30:02;;;;;;;2.90;2.70;;;;;;;12.40;99.70;100246.81;5125964;28;20207;-83
2023/10/23 05:32:30;;;;;;;3.67;3.03;;;;;;;12.38;99.74;100248.59;5121892;28;20236;-83
2023/10/23 05:34:56;;;;;;;3.13;2.83;;;;;;;12.38;99.18;100248.59;5106170;28;20202;-83
2023/10/23 05:37:23;;;;;;;4.03;2.23;;;;;;;12.38;99.56;100262.53;5118016;28;20231;-83
2023/10/23 05:39:49;;;;;;;2.73;2.47;;;;;;;12.37;99.30;100270.44;5126900;28;20209;-83
2023/10/23 05:42:17;;;;;;;4.53;4.03;;;;;;;12.37;100.00;100266.09;5127208;28;20204;-83
2023/10/23 05:44:43;;;;;;;3.47;2.50;;;;;;;12.38;100.00;100259.06;5126887;28;20207;-82
2023/10/23 05:47:10;;;;;;;2.83;2.60;;;;;;;12.39;100.00;100266.00;5127432;28;20209;-83
2023/10/23 05:49:36;;;;;;;3.40;2.80;;;;;;;12.41;100.00;100266.84;5127484;28;20199;-83
2023/10/23 05:52:03;;;;;;;4.57;2.80;;;;;;;12.43;100.00;100259.81;5125321;28;20204;-82
2023/10/23 05:54:31;;;;;;;6.77;6.27;;;;;;;12.35;100.00;100264.38;5121456;28;20727;-83
2023/10/23 05:56:57;;;;;;;3.50;3.30;;;;;;;12.42;100.00;100255.47;5118307;28;20220;-83
2023/10/23 05:59:25;;;;;;;3.07;2.87;;;;;;;12.43;100.00;100258.03;5117645;28;20222;-82
2023/10/23 06:01:52;;;;;;;3.57;3.20;;;;;;;12.41;100.00;100272.94;5126916;28;20216;-82
2023/10/23 06:04:18;;;;;;;3.40;3.10;;;;;;;12.45;100.00;100266.72;5125315;28;20222;-83
2023/10/23 06:06:46;;;;;;;2.87;2.67;;;;;;;12.48;100.00;100263.97;5122838;28;20204;-83
2023/10/23 06:09:14;;;;;;;3.70;3.40;;;;;;;12.50;100.00;100266.56;5121196;28;20726;-83
2023/10/23 06:11:40;;;;;;;12.33;3.10;;;;;;;12.46;100.00;100268.41;5123400;28;20206;-83
2023/10/23 06:14:08;;;;;;;3.47;3.20;;;;;;;12.48;100.00;100278.84;5121484;28;20873;-85
2023/10/23 06:16:36;;;;;;;3.33;2.90;;;;;;;12.53;100.00;100263.88;5124174;28;20859;-85
2023/10/23 06:19:05;;;;;;;3.60;3.30;;;;;;;12.49;100.00;100268.34;5121333;28;20222;-82
2023/10/23 06:21:32;;;;;;;7.43;3.60;;;;;;;12.54;100.00;100268.19;5121084;28;20251;-83
2023/10/23 06:23:58;;;;;;;5.03;3.17;;;;;;;12.57;100.00;100272.50;5122661;28;20210;-82
2023/10/23 06:26:24;;;;;;;5.77;4.17;;;;;;;12.56;100.00;100276.84;5120350;28;20241;-83
2023/10/23 06:28:51;;;;;;;3.77;3.40;;;;;;;12.57;100.00;100278.59;5120943;28;20240;-83
2023/10/23 06:31:17;;;;;;;4.53;3.10;;;;;;;12.59;100.00;100289.88;5119881;28;20215;-83
2023/10/23 06:33:46;;;;;;;4.77;3.93;;;;;;;12.59;100.00;100297.72;5120972;28;20211;-83
2023/10/23 06:36:13;;;;;;;4.07;3.77;;;;;;;12.61;100.00;100295.91;5118439;28;20290;-83
2023/10/23 06:38:40;;;;;;;6.53;3.80;;;;;;;12.65;100.00;100297.53;5120345;28;20226;-83
2023/10/23 06:41:07;;;;;;;4.10;3.70;;;;;;;12.67;100.00;100302.75;5119783;28;20217;-83
2023/10/23 06:43:35;;;;;;;3.30;3.10;;;;;;;12.66;100.00;100309.72;5119023;28;20377;-84
2023/10/23 06:46:03;;;;;;;4.70;4.30;;;;;;;12.68;100.00;100307.06;5120776;28;20648;-83
2023/10/23 06:48:29;;;;;;;3.83;3.63;;;;;;;12.61;100.00;100293.28;5120181;28;20223;-83
2023/10/23 06:50:57;;;;;;;4.10;3.80;;;;;;;12.68;100.00;100294.81;5119318;28;20202;-84
2023/10/23 06:53:24;;;;;;;6.00;4.50;;;;;;;12.73;100.00;100288.59;5120886;28;20217;-83
2023/10/23 06:55:55;;;;;;;4.10;3.80;;;;;;;12.79;100.00;100296.28;5120242;28;20208;-83
2023/10/23 06:58:23;;;;;;;4.73;4.27;;;;;;;12.83;100.00;100298.75;5119295;28;20723;-83
2023/10/23 07:00:53;;;;;;;4.20;3.90;;;;;;;12.83;100.00;100295.28;5121307;28;20200;-83
2023/10/23 07:03:19;;;;;;;4.53;4.13;;;;;;;12.84;100.00;100297.84;5120091;28;20206;-84
2023/10/23 07:05:46;;;;;;;5.60;3.50;;;;;;;12.90;100.00;100304.63;5121047;28;20232;-83
2023/10/23 07:08:14;;;;;;;4.10;3.80;;;;;;;12.81;100.00;100291.84;5118571;28;20220;-83
2023/10/23 07:10:41;;;;;;;4.70;3.30;;;;;;;12.80;100.00;100284.88;5121895;28;20201;-83
2023/10/23 07:13:09;;;;;;;4.20;3.80;;;;;;;12.84;100.00;100274.28;5120686;28;20204;-83
2023/10/23 07:15:36;;;;;;;3.23;3.03;;;;;;;12.93;100.00;100273.13;5122147;28;20232;-84
2023/10/23 07:18:03;;;;;;;3.90;3.07;;;;;;;13.00;100.00;100282.50;5122532;28;20253;-83
2023/10/23 07:20:29;;;;;;;3.23;3.00;;;;;;;13.05;100.00;100283.22;5116355;28;20293;-83
2023/10/23 07:22:56;;;;;;;3.47;3.20;;;;;;;13.12;100.00;100286.47;5115892;28;20208;-83
2023/10/23 07:25:24;;;;;;;2.97;2.77;;;;;;;13.17;100.00;100291.59;5119632;28;20216;-82
2023/10/23 07:27:52;;;;;;;3.10;2.70;;;;;;;13.21;100.00;100290.59;5118155;28;20264;-83
2023/10/23 07:30:22;;;;;;;3.40;3.10;;;;;;;13.24;100.00;100304.47;5118832;28;20284;-83
2023/10/23 07:32:49;;;;;;;3.77;3.23;;;;;;;13.27;100.00;100306.13;5119133;28;20205;-83
2023/10/23 07:35:16;;;;;;;3.40;3.10;;;;;;;13.30;100.00;100308.69;5119274;28;20214;-83
2023/10/23 07:37:42;;;;;;;3.07;2.70;;;;;;;13.33;100.00;100316.44;5118672;28;20222;-83
2023/10/23 07:40:09;;;;;;;4.10;3.53;;;;;;;13.35;100.00;100316.38;5119065;28;20198;-83
2023/10/23 07:42:37;;;;;;;3.80;3.50;;;;;;;13.40;100.00;100324.94;5119943;28;20197;-83
2023/10/23 07:45:04;;;;;;;6.10;3.87;;;;;;;13.44;100.00;100318.72;5119191;28;20207;-83
2023/10/23 07:47:31;;;;;;;4.20;3.50;;;;;;;13.51;100.00;100326.31;5113566;28;20224;-83
2023/10/23 07:49:57;;;;;;;4.50;4.10;;;;;;;13.57;100.00;100332.28;5117527;28;20276;-83
2023/10/23 07:52:24;;;;;;;4.80;4.40;;;;;;;13.61;100.00;100342.59;5118026;28;20202;-83
2023/10/23 07:54:53;;;;;;;5.00;4.70;;;;;;;13.65;99.62;100356.47;5118310;28;20198;-83
2023/10/23 07:57:19;;;;;;;7.57;6.83;;;;;;;13.63;98.57;100371.41;5116721;28;20213;-83
2023/10/23 07:59:48;;;;;;;6.60;6.10;;;;;;;13.58;98.58;100379.44;5116238;28;20644;-83
2023/10/23 08:02:14;;;;;;;7.80;6.37;;;;;;;13.56;99.29;100373.38;5118442;28;20206;-83
2023/10/23 08:04:41;;;;;;;6.90;6.40;;;;;;;13.56;99.96;100367.25;5116155;28;20211;-83
2023/10/23 08:07:07;;;;;;;6.53;6.03;;;;;;;13.59;100.00;100360.16;5117892;28;20204;-83
2023/10/23 08:09:35;;;;;;;9.33;6.47;;;;;;;13.61;100.00;100360.13;5121746;28;20209;-83
2023/10/23 08:12:01;;;;;;;6.43;5.93;;;;;;;13.60;100.00;100358.41;5129802;28;20209;-81
2023/10/23 08:14:27;;;;;;;5.87;5.47;;;;;;;13.53;100.00;100356.88;5128886;28;20214;-81
2023/10/23 08:16:55;;;;;;;6.23;5.67;;;;;;;13.46;100.00;100351.84;5129104;28;20573;-81
2023/10/23 08:19:22;;;;;;;5.50;5.10;;;;;;;13.45;100.00;100347.50;5121442;28;20225;-80
2023/10/23 08:21:49;;;;;;;5.07;4.57;;;;;;;13.50;100.00;100356.09;5122838;28;20266;-80
2023/10/23 08:24:16;;;;;;;4.90;4.30;;;;;;;13.43;100.00;100362.41;5125745;28;20197;-80
2023/10/23 08:26:42;;;;;;;5.20;4.80;;;;;;;13.44;100.00;100356.28;5126550;28;20585;-81
2023/10/23 08:29:09;;;;;;;4.83;4.43;;;;;;;13.54;100.00;100356.84;5124732;28;20222;-81
2023/10/23 08:31:35;;;;;;;5.17;4.10;;;;;;;13.61;100.00;100357.50;5125626;28;20263;-81
2023/10/23 08:34:03;;;;;;;4.23;3.93;;;;;;;13.51;100.00;100344.66;5127886;28;20208;-80
2023/10/23 08:36:29;;;;;;;4.30;4.00;;;;;;;13.62;100.00;100336.47;5125130;28;20205;-81
2023/10/23 08:38:56;;;;;;;4.10;3.90;;;;;;;13.58;100.00;100347.97;5126221;28;20230;-80
2023/10/23 08:41:22;;;;;;;4.13;3.87;;;;;;;13.62;100.00;100336.47;5125894;28;20217;-81
2023/10/23 08:43:49;;;;;;;5.30;4.63;;;;;;;13.68;100.00;100336.25;5129103;28;20213;-81
2023/10/23 08:46:15;;;;;;;5.10;4.70;;;;;;;13.73;100.00;100354.47;5129782;28;20228;-80
2023/10/23 08:48:42;;;;;;;4.63;4.33;;;;;;;13.79;99.59;100371.75;5127477;28;20234;-82
2023/10/23 08:51:10;;;;;;;5.00;4.60;;;;;;;13.84;98.50;100386.44;5135543;28;20202;-81
2023/10/23 08:53:47;;;;;;;4.23;3.93;;;;;;;14.01;98.93;100391.16;5136953;28;20188;-81
2023/10/23 08:56:13;;;;;;;5.03;4.63;;;;;;;13.97;97.58;100407.03;5133288;28;20196;-83
2023/10/23 08:58:46;;;;;;;6.20;5.63;;;;;;;14.14;97.10;100417.81;5139104;28;20220;-80
2023/10/23 09:01:15;;;;;;;5.70;5.20;;;;;;;14.11;96.30;100428.41;5135807;28;20186;-80
2023/10/23 09:03:41;;;;;;;6.03;5.47;;;;;;;14.27;95.22;100441.88;5139222;28;20220;-80
2023/10/23 09:06:09;;;;;;;5.60;5.10;;;;;;;14.20;93.77;100475.38;5133197;28;20208;-81
2023/10/23 09:08:37;;;;;;;5.20;4.80;;;;;;;14.41;96.09;100460.66;5123597;28;20217;-83
2023/10/23 09:11:06;;;;;;;5.70;5.20;;;;;;;14.46;94.12;100476.25;5128416;28;20277;-81
2023/10/23 09:13:36;;;;;;;5.50;5.03;;;;;;;14.54;94.20;100497.00;5118758;28;20624;-79
2023/10/23 09:16:04;;;;;;;5.23;4.93;;;;;;;14.61;94.11;100494.16;5114870;28;20240;-80
2023/10/23 09:18:30;;;;;;;5.90;5.40;;;;;;;14.69;93.75;100502.63;5115372;28;20229;-79
2023/10/23 09:20:57;;;;;;;9.43;5.40;;;;;;;14.75;93.70;100501.53;5107898;28;20206;-80
2023/10/23 09:23:25;;;;;;;5.63;5.03;;;;;;;14.82;93.50;100496.91;5120547;28;20207;-79
2023/10/23 09:25:57;;;;;;;5.50;5.10;;;;;;;14.90;93.43;100497.50;5109864;28;20203;-79
2023/10/23 09:28:23;;;;;;;5.87;5.50;;;;;;;14.89;92.43;100522.94;5107418;28;20221;-79
2023/10/23 09:30:50;;;;;;;7.20;6.70;;;;;;;14.92;91.12;100531.63;5122516;28;20687;-79
2023/10/23 09:33:16;;;;;;;9.70;9.10;;;;;;;14.74;88.73;100570.75;5124308;28;20214;-79
2023/10/23 09:35:43;;;;;;;9.20;8.60;;;;;;;14.31;88.80;100587.94;5117340;28;20212;-79
2023/10/23 09:38:13;;;;;;;9.63;8.93;;;;;;;14.43;89.06;100578.78;5125257;28;20233;-79
2023/10/23 09:41:14;;;;;;;10.90;10.03;;;;;;;14.19;88.92;100597.06;5125312;28;20202;-79
2023/10/23 09:43:45;;;;;;;10.10;9.40;;;;;;;14.38;90.07;100573.69;5121507;27;20474;-79
2023/10/23 09:46:12;;;;;;;10.97;10.17;;;;;;;14.29;88.86;100579.22;5122609;28;20232;-79
2023/10/23 09:48:40;;;;;;;11.13;10.23;;;;;;;14.29;90.58;100564.34;5121219;28;20226;-79
2023/10/23 09:51:11;;;;;;;11.33;8.83;;;;;;;14.50;91.01;100539.13;5121978;28;20217;-79
2023/10/23 09:53:38;;;;;;;10.37;8.90;;;;;;;14.72;90.55;100540.19;5120240;28;20225;-79
2023/10/23 09:56:08;;;;;;;10.93;10.07;;;;;;;14.86;88.85;100553.72;5102265;28;20215;-79
2023/10/23 09:58:41;;;;;;;11.27;10.37;;;;;;;14.76;84.83;100642.53;5102825;28;20231;-79
2023/10/23 10:01:09;;;;;;;10.87;10.17;;;;;;;14.91;85.27;100641.16;5113020;28;20215;-79
2023/10/23 10:03:39;;;;;;;10.67;9.87;;;;;;;14.65;82.85;100678.81;5123777;28;20213;-79
2023/10/23 10:06:09;;;;;;;10.87;10.13;;;;;;;14.44;83.81;100702.16;5124834;28;20699;-80
2023/10/23 10:08:41;;;;;;;11.03;10.23;;;;;;;14.13;84.37;100701.38;5123668;27;20238;-79
2023/10/23 10:11:09;;;;;;;11.27;10.47;;;;;;;13.86;85.37;100689.00;5120046;28;20210;-79
2023/10/23 10:13:37;;;;;;;11.07;10.10;;;;;;;13.89;85.91;100661.81;5115896;28;20218;-78
2023/10/23 10:16:05;;;;;;;9.97;8.97;;;;;;;14.25;88.80;100615.25;5116074;28;20577;-79
2023/10/23 10:18:34;;;;;;;11.00;10.07;;;;;;;14.49;87.59;100602.22;5115815;28;20307;-79
2023/10/23 10:21:07;;;;;;;11.07;10.07;;;;;;;14.36;85.39;100624.53;5117375;28;20206;-78
2023/10/23 10:23:35;;;;;;;10.40;9.40;;;;;;;14.26;86.07;100630.06;5116926;28;20210;-79
2023/10/23 10:26:04;;;;;;;9.50;8.87;;;;;;;14.51;87.80;100603.03;5110893;28;20217;-79
2023/10/23 10:28:32;;;;;;;10.50;9.60;;;;;;;14.46;85.86;100612.81;5095655;28;20723;-78
2023/10/23 10:30:58;;;;;;;11.07;10.20;;;;;;;14.34;86.12;100624.59;5105864;28;20203;-78
2023/10/23 10:33:29;;;;;;;10.47;9.70;;;;;;;14.65;86.15;100615.75;5106840;28;20214;-79
2023/10/23 10:35:59;;;;;;;11.10;10.30;;;;;;;14.87;85.95;100616.75;5095608;28;20209;-79
2023/10/23 10:38:26;;;;;;;11.60;10.40;;;;;;;14.87;86.20;100615.91;5096366;28;20238;-78
2023/10/23 10:40:58;;;;;;;10.93;10.17;;;;;;;14.82;86.60;100610.78;5098046;28;20215;-79
2023/10/23 10:43:37;;;;;;;11.00;10.18;;;;;;;14.58;87.27;100601.09;4740124;28;10002747;-79
2023/10/23 10:46:15;;;;;;;9.93;9.13;;;;;;;14.77;87.71;100573.31;5107778;28;20203;-78
2023/10/23 10:48:43;;;;;;;11.70;10.70;;;;;;;14.67;88.32;100570.13;5112083;28;20230;-78
2023/10/23 10:51:10;;;;;;;11.00;10.20;;;;;;;14.72;87.01;100569.09;5112240;28;20207;-78
2023/10/23 10:53:40;;;;;;;11.00;10.10;;;;;;;14.97;86.02;100590.16;5094005;28;20272;-78
2023/10/23 10:56:08;;;;;;;11.23;10.30;;;;;;;15.15;85.19;100609.69;5091361;28;20203;-78
2023/10/23 10:58:37;;;;;;;10.87;10.00;;;;;;;15.20;84.16;100624.41;5089971;28;20229;-78
2023/10/23 11:01:04;;;;;;;10.37;9.47;;;;;;;15.12;84.29;100629.03;5099893;28;20205;-78
2023/10/23 11:03:30;;;;;;;9.87;9.17;;;;;;;14.77;83.89;100646.03;5110783;28;20680;-78
2023/10/23 11:05:57;;;;;;;9.80;8.97;;;;;;;14.63;82.46;100668.34;5111526;28;20225;-78
2023/10/23 11:08:24;;;;;;;9.93;8.90;;;;;;;14.88;82.37;100676.31;5111393;28;20241;-78
2023/10/23 11:10:50;;;;;;;10.00;9.20;;;;;;;14.80;80.88;100701.94;5111659;28;20627;-78
2023/10/23 11:13:16;;;;;;;9.90;9.00;;;;;;;14.76;79.92;100734.50;5110562;28;20217;-78
2023/10/23 11:15:46;;;;;;;9.00;8.40;;;;;;;14.74;79.68;100745.97;5111060;28;20640;-78
2023/10/23 11:18:13;;;;;;;9.33;8.53;;;;;;;14.81;79.73;100758.88;5110776;28;20575;-79
2023/10/23 11:20:40;;;;;;;9.63;9.03;;;;;;;14.79;79.68;100754.59;5114177;28;20209;-79